Ride Results

Johnny Green Memorial (14-04-2018)
Ride distance: 80.0 km

Outcomes - Johnny Green Memorial (14-04-2018)
Division No. of Entries Retired / DNE Completed Withdrawn Ineligible V/O Percentage Completed
HW 4 - 2 1 - 1 50.00%
MW 12 - 12 - - - 100.00%
LW 5 - 5 - - - 100.00%
JN 2 - 2 - - - 100.00%
Totals 23 - 21 1 - 1 91.30%
Results - Johnny Green Memorial (14-04-2018)
No. Rider Horse Place Time Leg Speeds Total
Km/Hr
H/R bpm
Heavyweight
106 Paul Sward Woodsong Zadonk 1 (BC) 7:39:01 11.0, 9.9 10.46 41, 50, 57 (Avg:53)
25 Ian Sward Bodhisattva Sca 2 7:46:00 10.9, 9.7 10.30 41, 41, 50 (Avg:45)
166 Craig Wilson Rebel Impact Lame L2 0:00:00 13.0, 11.5 - 35, 48, 50 (Avg:49)
45 Denise Williams Valley Springs Summer Haze Withdrawn L1 0:00:00 - - 38, 48 (Avg:48)
Middleweight
136 Kaye Mitchell Beer Street Dezhda 1 (BC) 5:47:00 14.5, 13.1 13.83 35, 42, 49 (Avg:45)
132 Carolyn Foley-Jones Vandieman Princess Ellie 2 6:27:00 11.7, 13.1 12.40 32, 48, 48 (Avg:48)
179 Debbie Grull Highland View Chelsea 3 6:28:00 11.7, 13.0 12.37 36, 40, 45 (Avg:42)
300 Raelene Smith Acaciavej Silk'n Velvet 4 6:29:00 11.7, 12.9 12.34 41, 43, 51 (Avg:47)
165 Danielle Taylor BBP Pocahontus 5 6:56:00 11.5, 11.5 11.54 36, 48, 56 (Avg:52)
254 Deb Wyllie Beer Street Aslan T B 6 6:57:00 11.6, 11.3 11.51 40, 49, 53 (Avg:51)
77 Lina Bornkessel Lockleigh Park Destinee 7 7:16:00 10.7, 11.2 11.01 57, 44, 51 (Avg:47)
78 Brad Hill Lockleigh Park Magic Miss 8 7:16:01 10.7, 11.2 11.01 34, 38, 44 (Avg:41)
80 Noel Lockhart Lockleigh Park Turbulence 9 7:16:02 10.7, 11.2 11.01 31, 40, 40 (Avg:40)
50 Joanne Marshall Rowallan Aspin 10 7:39:00 10.9, 10.0 10.46 35, 46, 52 (Avg:49)
339 Lara Verdouw Awarran Park Shining Aura 11 7:40:00 11.0, 9.8 10.43 40, 44, 53 (Avg:48)
26 Narelle Sward Kalahari Wind 'N' Fire 12 7:46:00 10.9, 9.7 10.30 45, 50, 53 (Avg:51)
Lightweight
42 Dianne Walsh Davlyn Park Krystal 1 6:05:00 13.2, 13.0 13.15 38, 47, 53 (Avg:50)
74 Felicity Perry Wattlewood Park Kalee 2 6:27:00 11.7, 13.1 12.40 36, 46, 50 (Avg:48)
90 Angela Hawks Cincinnati 3 (BC) 6:28:00 11.6, 13.1 12.37 33, 45, 47 (Avg:46)
191 Rachel Bennett Highland View Mustang Sally 4 6:28:01 11.7, 13.0 12.37 36, 42, 48 (Avg:45)
157 Lynette Walker Vandieman Geronimo 5 6:56:01 11.6, 11.4 11.54 31, 35, 42 (Avg:38)
Junior
231 Dylan Foley-Stevens Van Dieman Tinkerbell 1 (BC) 6:28:00 11.7, 13.0 12.37 38, 45, 54 (Avg:49)
113 Kirstie Lockhart Santashka Jewel of Alii 2 7:16:00 10.7, 11.2 11.01 38, 45, 47 (Avg:46)